sensor_id;sensor_type;location;lat;lon;timestamp;P1;durP1;ratioP1;P2;durP2;ratioP2
77234;SDS011;66253;50.526;14.974;2023-03-16T00:02:12;10.70;;;4.90;;
77234;SDS011;66253;50.526;14.974;2023-03-16T00:04:45;13.30;;;6.60;;
77234;SDS011;66253;50.526;14.974;2023-03-16T00:07:12;11.00;;;5.10;;
77234;SDS011;66253;50.526;14.974;2023-03-16T00:09:39;11.30;;;5.50;;
77234;SDS011;66253;50.526;14.974;2023-03-16T00:12:06;11.20;;;5.80;;
77234;SDS011;66253;50.526;14.974;2023-03-16T00:14:46;10.60;;;5.40;;
77234;SDS011;66253;50.526;14.974;2023-03-16T00:17:22;11.70;;;6.10;;
77234;SDS011;66253;50.526;14.974;2023-03-16T00:19:50;13.50;;;7.70;;
77234;SDS011;66253;50.526;14.974;2023-03-16T00:22:20;11.00;;;5.80;;
77234;SDS011;66253;50.526;14.974;2023-03-16T00:24:47;12.30;;;5.50;;
77234;SDS011;66253;50.526;14.974;2023-03-16T00:27:15;12.70;;;5.70;;
77234;SDS011;66253;50.526;14.974;2023-03-16T00:29:42;11.60;;;5.10;;
77234;SDS011;66253;50.526;14.974;2023-03-16T00:32:13;12.20;;;5.30;;
77234;SDS011;66253;50.526;14.974;2023-03-16T00:35:02;13.10;;;6.50;;
77234;SDS011;66253;50.526;14.974;2023-03-16T00:37:31;10.30;;;4.40;;
77234;SDS011;66253;50.526;14.974;2023-03-16T00:40:32;11.10;;;4.50;;
77234;SDS011;66253;50.526;14.974;2023-03-16T00:43:10;10.40;;;4.30;;
77234;SDS011;66253;50.526;14.974;2023-03-16T00:45:37;9.50;;;5.00;;
77234;SDS011;66253;50.526;14.974;2023-03-16T00:48:26;11.60;;;4.90;;
77234;SDS011;66253;50.526;14.974;2023-03-16T00:57:41;10.70;;;5.00;;
77234;SDS011;66253;50.526;14.974;2023-03-16T01:01:15;13.00;;;5.50;;
77234;SDS011;66253;50.526;14.974;2023-03-16T01:04:57;11.50;;;4.60;;
77234;SDS011;66253;50.526;14.974;2023-03-16T01:10:26;10.20;;;5.20;;
77234;SDS011;66253;50.526;14.974;2023-03-16T01:12:52;11.50;;;5.40;;
77234;SDS011;66253;50.526;14.974;2023-03-16T01:15:20;13.10;;;6.60;;
77234;SDS011;66253;50.526;14.974;2023-03-16T01:17:54;9.90;;;5.20;;
77234;SDS011;66253;50.526;14.974;2023-03-16T01:20:20;11.70;;;5.60;;
77234;SDS011;66253;50.526;14.974;2023-03-16T01:22:50;10.90;;;5.30;;
77234;SDS011;66253;50.526;14.974;2023-03-16T01:25:36;10.80;;;5.00;;
77234;SDS011;66253;50.526;14.974;2023-03-16T01:28:09;12.00;;;5.00;;
77234;SDS011;66253;50.526;14.974;2023-03-16T01:30:37;10.50;;;5.90;;
77234;SDS011;66253;50.526;14.974;2023-03-16T01:33:10;13.00;;;5.10;;
77234;SDS011;66253;50.526;14.974;2023-03-16T01:35:39;13.10;;;4.90;;
77234;SDS011;66253;50.526;14.974;2023-03-16T01:38:41;10.60;;;4.30;;
77234;SDS011;66253;50.526;14.974;2023-03-16T01:41:19;8.90;;;4.20;;
77234;SDS011;66253;50.526;14.974;2023-03-16T01:43:46;9.40;;;4.40;;
77234;SDS011;66253;50.526;14.974;2023-03-16T01:46:20;12.10;;;5.30;;
77234;SDS011;66253;50.526;14.974;2023-03-16T01:48:55;11.30;;;4.70;;
77234;SDS011;66253;50.526;14.974;2023-03-16T01:53:55;12.20;;;4.90;;
77234;SDS011;66253;50.526;14.974;2023-03-16T01:56:37;12.30;;;5.50;;
77234;SDS011;66253;50.526;14.974;2023-03-16T01:59:31;14.20;;;5.00;;
77234;SDS011;66253;50.526;14.974;2023-03-16T02:02:03;10.90;;;5.20;;
77234;SDS011;66253;50.526;14.974;2023-03-16T02:07:27;9.90;;;5.50;;
77234;SDS011;66253;50.526;14.974;2023-03-16T02:10:05;9.40;;;4.70;;
77234;SDS011;66253;50.526;14.974;2023-03-16T02:13:04;9.60;;;4.70;;
77234;SDS011;66253;50.526;14.974;2023-03-16T02:15:47;9.80;;;4.30;;
77234;SDS011;66253;50.526;14.974;2023-03-16T02:18:35;10.50;;;4.30;;
77234;SDS011;66253;50.526;14.974;2023-03-16T02:34:51;7.00;;;3.30;;
77234;SDS011;66253;50.526;14.974;2023-03-16T02:37:22;10.70;;;4.30;;
77234;SDS011;66253;50.526;14.974;2023-03-16T02:40:29;7.50;;;3.50;;
77234;SDS011;66253;50.526;14.974;2023-03-16T02:43:32;9.10;;;3.70;;
77234;SDS011;66253;50.526;14.974;2023-03-16T02:46:03;10.70;;;4.70;;
77234;SDS011;66253;50.526;14.974;2023-03-16T02:48:32;10.60;;;4.60;;
77234;SDS011;66253;50.526;14.974;2023-03-16T02:51:08;10.10;;;4.90;;
77234;SDS011;66253;50.526;14.974;2023-03-16T02:53:37;10.40;;;4.20;;
77234;SDS011;66253;50.526;14.974;2023-03-16T02:56:03;8.80;;;4.20;;
77234;SDS011;66253;50.526;14.974;2023-03-16T02:58:32;8.50;;;3.90;;
77234;SDS011;66253;50.526;14.974;2023-03-16T03:01:06;13.20;;;5.10;;
77234;SDS011;66253;50.526;14.974;2023-03-16T03:03:44;11.20;;;4.80;;
77234;SDS011;66253;50.526;14.974;2023-03-16T03:06:13;10.80;;;5.40;;
77234;SDS011;66253;50.526;14.974;2023-03-16T03:08:39;10.30;;;4.40;;
77234;SDS011;66253;50.526;14.974;2023-03-16T03:11:07;12.00;;;4.80;;
77234;SDS011;66253;50.526;14.974;2023-03-16T03:13:35;12.30;;;4.50;;
77234;SDS011;66253;50.526;14.974;2023-03-16T03:16:03;11.00;;;4.30;;
77234;SDS011;66253;50.526;14.974;2023-03-16T03:18:32;9.30;;;4.00;;
77234;SDS011;66253;50.526;14.974;2023-03-16T03:21:00;11.00;;;4.10;;
77234;SDS011;66253;50.526;14.974;2023-03-16T03:23:26;11.90;;;4.00;;
77234;SDS011;66253;50.526;14.974;2023-03-16T03:25:56;10.70;;;4.40;;
77234;SDS011;66253;50.526;14.974;2023-03-16T03:28:25;10.50;;;5.00;;
77234;SDS011;66253;50.526;14.974;2023-03-16T03:30:54;10.60;;;4.00;;
77234;SDS011;66253;50.526;14.974;2023-03-16T03:33:35;10.40;;;4.10;;
77234;SDS011;66253;50.526;14.974;2023-03-16T03:36:12;9.50;;;3.80;;
77234;SDS011;66253;50.526;14.974;2023-03-16T03:39:25;8.90;;;3.70;;
77234;SDS011;66253;50.526;14.974;2023-03-16T03:48:21;10.00;;;4.70;;
77234;SDS011;66253;50.526;14.974;2023-03-16T03:53:54;9.50;;;4.40;;
77234;SDS011;66253;50.526;14.974;2023-03-16T03:56:37;12.20;;;6.40;;
77234;SDS011;66253;50.526;14.974;2023-03-16T03:59:02;10.40;;;4.90;;
77234;SDS011;66253;50.526;14.974;2023-03-16T04:01:28;7.70;;;4.00;;
77234;SDS011;66253;50.526;14.974;2023-03-16T04:04:08;9.90;;;4.80;;
77234;SDS011;66253;50.526;14.974;2023-03-16T04:06:37;9.50;;;4.00;;
77234;SDS011;66253;50.526;14.974;2023-03-16T04:09:03;9.60;;;4.10;;
77234;SDS011;66253;50.526;14.974;2023-03-16T04:11:29;7.80;;;3.70;;
77234;SDS011;66253;50.526;14.974;2023-03-16T04:13:58;9.90;;;4.00;;
77234;SDS011;66253;50.526;14.974;2023-03-16T04:16:26;8.70;;;4.00;;
77234;SDS011;66253;50.526;14.974;2023-03-16T04:18:58;9.70;;;4.30;;
77234;SDS011;66253;50.526;14.974;2023-03-16T04:21:26;11.60;;;4.30;;
77234;SDS011;66253;50.526;14.974;2023-03-16T04:23:59;11.30;;;4.80;;
77234;SDS011;66253;50.526;14.974;2023-03-16T04:26:31;8.80;;;3.90;;
77234;SDS011;66253;50.526;14.974;2023-03-16T04:28:57;9.30;;;4.10;;
77234;SDS011;66253;50.526;14.974;2023-03-16T04:31:23;10.00;;;4.70;;
77234;SDS011;66253;50.526;14.974;2023-03-16T04:34:09;10.80;;;4.50;;
77234;SDS011;66253;50.526;14.974;2023-03-16T04:36:36;11.30;;;4.50;;
77234;SDS011;66253;50.526;14.974;2023-03-16T04:39:05;10.10;;;4.70;;
77234;SDS011;66253;50.526;14.974;2023-03-16T04:41:33;11.10;;;4.10;;
77234;SDS011;66253;50.526;14.974;2023-03-16T04:43:59;9.60;;;4.10;;
77234;SDS011;66253;50.526;14.974;2023-03-16T04:46:25;8.40;;;4.30;;
77234;SDS011;66253;50.526;14.974;2023-03-16T04:48:56;10.30;;;3.70;;
77234;SDS011;66253;50.526;14.974;2023-03-16T04:51:23;10.20;;;4.20;;
77234;SDS011;66253;50.526;14.974;2023-03-16T04:53:52;8.60;;;4.00;;
77234;SDS011;66253;50.526;14.974;2023-03-16T04:56:19;9.10;;;4.30;;
77234;SDS011;66253;50.526;14.974;2023-03-16T04:59:02;10.90;;;4.10;;
77234;SDS011;66253;50.526;14.974;2023-03-16T05:01:38;13.60;;;5.00;;
77234;SDS011;66253;50.526;14.974;2023-03-16T05:04:17;10.00;;;4.80;;
77234;SDS011;66253;50.526;14.974;2023-03-16T05:07:42;7.90;;;3.40;;
77234;SDS011;66253;50.526;14.974;2023-03-16T05:12:58;13.00;;;5.00;;
77234;SDS011;66253;50.526;14.974;2023-03-16T05:15:27;9.80;;;3.70;;
77234;SDS011;66253;50.526;14.974;2023-03-16T05:17:54;9.50;;;3.70;;
77234;SDS011;66253;50.526;14.974;2023-03-16T05:20:25;11.80;;;4.40;;
77234;SDS011;66253;50.526;14.974;2023-03-16T05:22:50;11.30;;;5.40;;
77234;SDS011;66253;50.526;14.974;2023-03-16T05:25:16;9.00;;;3.90;;
77234;SDS011;66253;50.526;14.974;2023-03-16T05:27:47;8.80;;;3.80;;
77234;SDS011;66253;50.526;14.974;2023-03-16T05:30:15;9.90;;;4.20;;
77234;SDS011;66253;50.526;14.974;2023-03-16T05:32:43;11.00;;;4.70;;
77234;SDS011;66253;50.526;14.974;2023-03-16T05:35:10;11.10;;;4.70;;
77234;SDS011;66253;50.526;14.974;2023-03-16T05:37:39;10.30;;;4.30;;
77234;SDS011;66253;50.526;14.974;2023-03-16T05:40:07;10.40;;;4.10;;
77234;SDS011;66253;50.526;14.974;2023-03-16T05:42:38;11.70;;;4.80;;
77234;SDS011;66253;50.526;14.974;2023-03-16T05:45:04;12.40;;;4.60;;
77234;SDS011;66253;50.526;14.974;2023-03-16T05:47:30;15.60;;;5.30;;
77234;SDS011;66253;50.526;14.974;2023-03-16T05:49:56;13.20;;;4.80;;
77234;SDS011;66253;50.526;14.974;2023-03-16T05:52:22;10.60;;;4.40;;
77234;SDS011;66253;50.526;14.974;2023-03-16T05:54:58;9.20;;;4.40;;
77234;SDS011;66253;50.526;14.974;2023-03-16T05:57:24;12.00;;;4.70;;
77234;SDS011;66253;50.526;14.974;2023-03-16T05:59:55;11.00;;;5.40;;
77234;SDS011;66253;50.526;14.974;2023-03-16T06:02:23;10.40;;;4.80;;
77234;SDS011;66253;50.526;14.974;2023-03-16T06:04:50;10.90;;;5.00;;
77234;SDS011;66253;50.526;14.974;2023-03-16T06:07:15;8.90;;;4.50;;
77234;SDS011;66253;50.526;14.974;2023-03-16T06:09:44;10.10;;;5.70;;
77234;SDS011;66253;50.526;14.974;2023-03-16T06:12:10;9.00;;;4.60;;
77234;SDS011;66253;50.526;14.974;2023-03-16T06:14:39;8.70;;;4.80;;
77234;SDS011;66253;50.526;14.974;2023-03-16T06:17:07;9.40;;;4.30;;
77234;SDS011;66253;50.526;14.974;2023-03-16T06:19:41;8.50;;;4.50;;
77234;SDS011;66253;50.526;14.974;2023-03-16T06:22:07;10.30;;;5.50;;
77234;SDS011;66253;50.526;14.974;2023-03-16T06:24:33;11.60;;;5.00;;
77234;SDS011;66253;50.526;14.974;2023-03-16T06:27:10;9.90;;;4.60;;
77234;SDS011;66253;50.526;14.974;2023-03-16T06:29:59;8.90;;;4.20;;
77234;SDS011;66253;50.526;14.974;2023-03-16T06:32:27;11.00;;;4.90;;
77234;SDS011;66253;50.526;14.974;2023-03-16T06:34:52;8.60;;;4.20;;
77234;SDS011;66253;50.526;14.974;2023-03-16T06:37:21;8.60;;;4.00;;
77234;SDS011;66253;50.526;14.974;2023-03-16T06:39:49;8.50;;;5.20;;
77234;SDS011;66253;50.526;14.974;2023-03-16T06:42:17;10.30;;;4.60;;
77234;SDS011;66253;50.526;14.974;2023-03-16T06:44:49;8.50;;;4.90;;
77234;SDS011;66253;50.526;14.974;2023-03-16T06:47:17;11.00;;;5.90;;
77234;SDS011;66253;50.526;14.974;2023-03-16T06:49:44;10.50;;;5.70;;
77234;SDS011;66253;50.526;14.974;2023-03-16T06:52:15;10.90;;;5.40;;
77234;SDS011;66253;50.526;14.974;2023-03-16T06:54:50;11.30;;;6.40;;
77234;SDS011;66253;50.526;14.974;2023-03-16T06:57:18;10.90;;;6.10;;
77234;SDS011;66253;50.526;14.974;2023-03-16T06:59:46;13.20;;;7.10;;
77234;SDS011;66253;50.526;14.974;2023-03-16T07:02:12;11.20;;;6.00;;
77234;SDS011;66253;50.526;14.974;2023-03-16T07:04:39;11.90;;;6.30;;
77234;SDS011;66253;50.526;14.974;2023-03-16T07:07:08;12.00;;;6.30;;
77234;SDS011;66253;50.526;14.974;2023-03-16T07:09:35;12.10;;;5.60;;
77234;SDS011;66253;50.526;14.974;2023-03-16T07:12:03;10.50;;;6.10;;
77234;SDS011;66253;50.526;14.974;2023-03-16T07:14:31;12.40;;;6.30;;
77234;SDS011;66253;50.526;14.974;2023-03-16T07:16:57;10.40;;;5.30;;
77234;SDS011;66253;50.526;14.974;2023-03-16T07:19:23;7.60;;;4.30;;
77234;SDS011;66253;50.526;14.974;2023-03-16T07:21:50;8.50;;;5.10;;
77234;SDS011;66253;50.526;14.974;2023-03-16T07:24:40;9.50;;;5.30;;
77234;SDS011;66253;50.526;14.974;2023-03-16T07:27:06;10.00;;;4.70;;
77234;SDS011;66253;50.526;14.974;2023-03-16T07:29:31;10.00;;;6.70;;
77234;SDS011;66253;50.526;14.974;2023-03-16T07:31:58;10.80;;;6.30;;
77234;SDS011;66253;50.526;14.974;2023-03-16T07:34:26;10.80;;;5.20;;
77234;SDS011;66253;50.526;14.974;2023-03-16T07:36:52;9.60;;;4.90;;
77234;SDS011;66253;50.526;14.974;2023-03-16T07:39:22;9.00;;;4.80;;
77234;SDS011;66253;50.526;14.974;2023-03-16T07:41:54;8.90;;;5.00;;
77234;SDS011;66253;50.526;14.974;2023-03-16T07:44:20;7.80;;;4.80;;
77234;SDS011;66253;50.526;14.974;2023-03-16T07:46:46;8.90;;;4.50;;
77234;SDS011;66253;50.526;14.974;2023-03-16T07:49:12;9.80;;;5.30;;
77234;SDS011;66253;50.526;14.974;2023-03-16T07:51:37;8.70;;;5.20;;
77234;SDS011;66253;50.526;14.974;2023-03-16T07:54:06;7.40;;;5.10;;
77234;SDS011;66253;50.526;14.974;2023-03-16T07:56:32;12.10;;;5.00;;
77234;SDS011;66253;50.526;14.974;2023-03-16T07:58:57;9.00;;;4.20;;
77234;SDS011;66253;50.526;14.974;2023-03-16T08:04:06;8.80;;;4.80;;
77234;SDS011;66253;50.526;14.974;2023-03-16T08:06:31;9.20;;;4.70;;
77234;SDS011;66253;50.526;14.974;2023-03-16T08:09:06;8.80;;;5.20;;
77234;SDS011;66253;50.526;14.974;2023-03-16T08:11:37;12.60;;;6.00;;
77234;SDS011;66253;50.526;14.974;2023-03-16T08:14:09;10.50;;;5.80;;
77234;SDS011;66253;50.526;14.974;2023-03-16T08:16:34;10.40;;;4.90;;
77234;SDS011;66253;50.526;14.974;2023-03-16T08:19:08;11.90;;;5.30;;
77234;SDS011;66253;50.526;14.974;2023-03-16T08:21:38;11.10;;;5.10;;
77234;SDS011;66253;50.526;14.974;2023-03-16T08:24:14;13.50;;;6.80;;
77234;SDS011;66253;50.526;14.974;2023-03-16T08:26:40;10.90;;;5.50;;
77234;SDS011;66253;50.526;14.974;2023-03-16T08:29:09;11.10;;;5.80;;
77234;SDS011;66253;50.526;14.974;2023-03-16T08:31:38;12.90;;;7.40;;
77234;SDS011;66253;50.526;14.974;2023-03-16T08:34:07;10.80;;;5.90;;
77234;SDS011;66253;50.526;14.974;2023-03-16T08:36:34;11.80;;;6.30;;
77234;SDS011;66253;50.526;14.974;2023-03-16T08:39:01;11.70;;;6.50;;
77234;SDS011;66253;50.526;14.974;2023-03-16T08:41:30;12.60;;;5.80;;
77234;SDS011;66253;50.526;14.974;2023-03-16T08:43:57;11.50;;;6.30;;
77234;SDS011;66253;50.526;14.974;2023-03-16T08:46:23;12.30;;;6.60;;
77234;SDS011;66253;50.526;14.974;2023-03-16T08:48:49;9.80;;;5.10;;
77234;SDS011;66253;50.526;14.974;2023-03-16T08:51:18;11.30;;;5.60;;
77234;SDS011;66253;50.526;14.974;2023-03-16T08:53:43;10.30;;;6.50;;
77234;SDS011;66253;50.526;14.974;2023-03-16T08:56:12;10.40;;;6.20;;
77234;SDS011;66253;50.526;14.974;2023-03-16T08:58:39;12.80;;;6.40;;
77234;SDS011;66253;50.526;14.974;2023-03-16T09:01:24;17.10;;;7.40;;
77234;SDS011;66253;50.526;14.974;2023-03-16T09:03:50;12.10;;;6.90;;
77234;SDS011;66253;50.526;14.974;2023-03-16T09:06:17;15.20;;;9.10;;
77234;SDS011;66253;50.526;14.974;2023-03-16T09:08:44;11.10;;;7.10;;
77234;SDS011;66253;50.526;14.974;2023-03-16T09:11:12;9.50;;;5.90;;
77234;SDS011;66253;50.526;14.974;2023-03-16T09:13:43;10.60;;;6.00;;
77234;SDS011;66253;50.526;14.974;2023-03-16T09:16:10;11.40;;;4.90;;
77234;SDS011;66253;50.526;14.974;2023-03-16T09:18:57;9.90;;;4.20;;
77234;SDS011;66253;50.526;14.974;2023-03-16T09:21:27;8.70;;;4.30;;
77234;SDS011;66253;50.526;14.974;2023-03-16T09:23:55;9.90;;;4.80;;
77234;SDS011;66253;50.526;14.974;2023-03-16T09:26:24;7.90;;;3.80;;
77234;SDS011;66253;50.526;14.974;2023-03-16T09:28:49;10.10;;;4.30;;
77234;SDS011;66253;50.526;14.974;2023-03-16T09:31:16;10.90;;;4.30;;
77234;SDS011;66253;50.526;14.974;2023-03-16T09:33:47;9.40;;;4.10;;
77234;SDS011;66253;50.526;14.974;2023-03-16T09:36:16;9.00;;;4.10;;
77234;SDS011;66253;50.526;14.974;2023-03-16T09:38:43;13.10;;;3.90;;
77234;SDS011;66253;50.526;14.974;2023-03-16T09:41:14;10.70;;;4.00;;
77234;SDS011;66253;50.526;14.974;2023-03-16T09:44:41;9.70;;;3.60;;
77234;SDS011;66253;50.526;14.974;2023-03-16T09:47:32;7.50;;;3.00;;
77234;SDS011;66253;50.526;14.974;2023-03-16T09:50:20;6.60;;;2.80;;
77234;SDS011;66253;50.526;14.974;2023-03-16T09:56:13;9.70;;;2.50;;
77234;SDS011;66253;50.526;14.974;2023-03-16T09:58:44;5.50;;;1.70;;
77234;SDS011;66253;50.526;14.974;2023-03-16T10:01:25;7.50;;;1.70;;
77234;SDS011;66253;50.526;14.974;2023-03-16T10:16:30;9.10;;;2.50;;
77234;SDS011;66253;50.526;14.974;2023-03-16T10:19:10;9.00;;;2.60;;
77234;SDS011;66253;50.526;14.974;2023-03-16T10:21:40;7.10;;;2.30;;
77234;SDS011;66253;50.526;14.974;2023-03-16T10:29:55;8.00;;;3.00;;
77234;SDS011;66253;50.526;14.974;2023-03-16T10:32:21;9.10;;;2.60;;
77234;SDS011;66253;50.526;14.974;2023-03-16T10:41:40;8.50;;;3.70;;
77234;SDS011;66253;50.526;14.974;2023-03-16T10:46:49;11.40;;;3.80;;
77234;SDS011;66253;50.526;14.974;2023-03-16T10:49:39;9.50;;;3.20;;
77234;SDS011;66253;50.526;14.974;2023-03-16T10:52:19;8.40;;;2.50;;
77234;SDS011;66253;50.526;14.974;2023-03-16T10:55:05;7.50;;;2.90;;
77234;SDS011;66253;50.526;14.974;2023-03-16T10:57:35;15.20;;;3.10;;
77234;SDS011;66253;50.526;14.974;2023-03-16T11:00:12;12.90;;;2.90;;
77234;SDS011;66253;50.526;14.974;2023-03-16T11:02:43;8.80;;;3.90;;
77234;SDS011;66253;50.526;14.974;2023-03-16T11:10:25;8.20;;;2.10;;
77234;SDS011;66253;50.526;14.974;2023-03-16T11:13:07;10.10;;;2.10;;
77234;SDS011;66253;50.526;14.974;2023-03-16T11:18:50;5.50;;;1.60;;
77234;SDS011;66253;50.526;14.974;2023-03-16T11:21:37;5.00;;;2.20;;
77234;SDS011;66253;50.526;14.974;2023-03-16T11:30:33;7.40;;;1.90;;
77234;SDS011;66253;50.526;14.974;2023-03-16T11:33:21;5.10;;;1.50;;
77234;SDS011;66253;50.526;14.974;2023-03-16T11:38:36;9.60;;;3.60;;
77234;SDS011;66253;50.526;14.974;2023-03-16T11:41:35;7.60;;;2.60;;
77234;SDS011;66253;50.526;14.974;2023-03-16T11:44:35;9.10;;;2.50;;
77234;SDS011;66253;50.526;14.974;2023-03-16T11:55:36;7.90;;;3.70;;
77234;SDS011;66253;50.526;14.974;2023-03-16T11:58:20;5.00;;;2.30;;
77234;SDS011;66253;50.526;14.974;2023-03-16T12:03:47;9.00;;;3.10;;
77234;SDS011;66253;50.526;14.974;2023-03-16T12:06:32;7.00;;;1.80;;
77234;SDS011;66253;50.526;14.974;2023-03-16T12:15:00;5.80;;;2.10;;
77234;SDS011;66253;50.526;14.974;2023-03-16T12:20:59;6.70;;;2.00;;
77234;SDS011;66253;50.526;14.974;2023-03-16T12:23:33;5.40;;;2.00;;
77234;SDS011;66253;50.526;14.974;2023-03-16T12:26:04;7.10;;;2.10;;
77234;SDS011;66253;50.526;14.974;2023-03-16T12:28:30;5.40;;;2.00;;
77234;SDS011;66253;50.526;14.974;2023-03-16T12:31:14;6.40;;;2.10;;
77234;SDS011;66253;50.526;14.974;2023-03-16T12:33:49;5.20;;;1.60;;
77234;SDS011;66253;50.526;14.974;2023-03-16T12:36:39;9.80;;;2.90;;
77234;SDS011;66253;50.526;14.974;2023-03-16T12:42:30;11.20;;;3.80;;
77234;SDS011;66253;50.526;14.974;2023-03-16T12:45:13;8.60;;;3.50;;
77234;SDS011;66253;50.526;14.974;2023-03-16T12:50:53;9.50;;;3.60;;
77234;SDS011;66253;50.526;14.974;2023-03-16T12:53:37;8.30;;;3.60;;
77234;SDS011;66253;50.526;14.974;2023-03-16T12:56:42;9.20;;;3.90;;
77234;SDS011;66253;50.526;14.974;2023-03-16T12:59:16;7.50;;;3.00;;
77234;SDS011;66253;50.526;14.974;2023-03-16T13:02:08;7.90;;;3.40;;
77234;SDS011;66253;50.526;14.974;2023-03-16T13:04:38;10.20;;;3.90;;
77234;SDS011;66253;50.526;14.974;2023-03-16T13:07:19;8.60;;;3.70;;
77234;SDS011;66253;50.526;14.974;2023-03-16T13:10:01;6.80;;;3.20;;
77234;SDS011;66253;50.526;14.974;2023-03-16T13:12:37;7.10;;;3.20;;
77234;SDS011;66253;50.526;14.974;2023-03-16T13:17:49;10.90;;;4.00;;
77234;SDS011;66253;50.526;14.974;2023-03-16T13:20:32;10.00;;;4.20;;
77234;SDS011;66253;50.526;14.974;2023-03-16T13:26:42;11.40;;;5.30;;
77234;SDS011;66253;50.526;14.974;2023-03-16T13:29:28;9.10;;;3.50;;
77234;SDS011;66253;50.526;14.974;2023-03-16T13:32:07;10.80;;;5.60;;
77234;SDS011;66253;50.526;14.974;2023-03-16T13:34:46;8.90;;;4.00;;
77234;SDS011;66253;50.526;14.974;2023-03-16T13:37:15;7.40;;;3.90;;
77234;SDS011;66253;50.526;14.974;2023-03-16T13:39:50;9.10;;;4.00;;
77234;SDS011;66253;50.526;14.974;2023-03-16T13:42:21;8.60;;;4.00;;
77234;SDS011;66253;50.526;14.974;2023-03-16T13:44:55;6.90;;;3.90;;
77234;SDS011;66253;50.526;14.974;2023-03-16T13:47:23;8.30;;;4.00;;
77234;SDS011;66253;50.526;14.974;2023-03-16T13:49:56;7.90;;;3.70;;
77234;SDS011;66253;50.526;14.974;2023-03-16T13:52:30;8.60;;;4.10;;
77234;SDS011;66253;50.526;14.974;2023-03-16T13:54:59;8.60;;;3.70;;
77234;SDS011;66253;50.526;14.974;2023-03-16T13:57:34;7.30;;;3.60;;
77234;SDS011;66253;50.526;14.974;2023-03-16T14:00:16;6.50;;;3.50;;
77234;SDS011;66253;50.526;14.974;2023-03-16T14:02:45;8.40;;;4.00;;
77234;SDS011;66253;50.526;14.974;2023-03-16T14:05:19;6.50;;;3.30;;
77234;SDS011;66253;50.526;14.974;2023-03-16T14:11:07;6.30;;;3.70;;
77234;SDS011;66253;50.526;14.974;2023-03-16T14:13:37;11.20;;;4.20;;
77234;SDS011;66253;50.526;14.974;2023-03-16T14:16:16;7.40;;;3.40;;
77234;SDS011;66253;50.526;14.974;2023-03-16T14:21:45;7.50;;;2.60;;
77234;SDS011;66253;50.526;14.974;2023-03-16T14:24:38;6.80;;;2.50;;
77234;SDS011;66253;50.526;14.974;2023-03-16T14:27:31;5.80;;;3.00;;
77234;SDS011;66253;50.526;14.974;2023-03-16T14:30:20;9.30;;;3.80;;
77234;SDS011;66253;50.526;14.974;2023-03-16T14:32:57;6.70;;;3.20;;
77234;SDS011;66253;50.526;14.974;2023-03-16T14:35:44;8.70;;;2.30;;
77234;SDS011;66253;50.526;14.974;2023-03-16T14:38:30;9.30;;;4.30;;
77234;SDS011;66253;50.526;14.974;2023-03-16T14:41:21;7.00;;;2.90;;
77234;SDS011;66253;50.526;14.974;2023-03-16T14:47:06;6.50;;;2.70;;
77234;SDS011;66253;50.526;14.974;2023-03-16T14:49:43;6.50;;;2.80;;
77234;SDS011;66253;50.526;14.974;2023-03-16T14:52:32;6.60;;;2.50;;
77234;SDS011;66253;50.526;14.974;2023-03-16T14:54:59;7.90;;;3.00;;
77234;SDS011;66253;50.526;14.974;2023-03-16T14:57:28;6.80;;;3.00;;
77234;SDS011;66253;50.526;14.974;2023-03-16T14:59:56;6.20;;;2.90;;
77234;SDS011;66253;50.526;14.974;2023-03-16T15:02:32;7.40;;;3.20;;
77234;SDS011;66253;50.526;14.974;2023-03-16T15:04:59;8.20;;;2.50;;
77234;SDS011;66253;50.526;14.974;2023-03-16T15:07:34;10.50;;;4.20;;
77234;SDS011;66253;50.526;14.974;2023-03-16T15:10:06;8.20;;;3.40;;
77234;SDS011;66253;50.526;14.974;2023-03-16T15:12:38;6.80;;;2.80;;
77234;SDS011;66253;50.526;14.974;2023-03-16T15:15:13;7.50;;;3.30;;
77234;SDS011;66253;50.526;14.974;2023-03-16T15:20:20;6.00;;;2.10;;
77234;SDS011;66253;50.526;14.974;2023-03-16T15:22:54;5.30;;;2.00;;
77234;SDS011;66253;50.526;14.974;2023-03-16T15:25:38;5.20;;;1.90;;
77234;SDS011;66253;50.526;14.974;2023-03-16T15:28:19;5.60;;;2.00;;
77234;SDS011;66253;50.526;14.974;2023-03-16T15:30:50;5.30;;;1.80;;
77234;SDS011;66253;50.526;14.974;2023-03-16T15:33:28;4.80;;;1.70;;
77234;SDS011;66253;50.526;14.974;2023-03-16T15:35:59;6.10;;;1.60;;
77234;SDS011;66253;50.526;14.974;2023-03-16T15:38:28;6.90;;;1.90;;
77234;SDS011;66253;50.526;14.974;2023-03-16T15:41:07;4.60;;;1.90;;
77234;SDS011;66253;50.526;14.974;2023-03-16T15:43:40;4.50;;;1.70;;
77234;SDS011;66253;50.526;14.974;2023-03-16T15:46:16;4.20;;;1.50;;
77234;SDS011;66253;50.526;14.974;2023-03-16T15:48:42;4.10;;;1.50;;
77234;SDS011;66253;50.526;14.974;2023-03-16T15:53:52;6.50;;;2.50;;
77234;SDS011;66253;50.526;14.974;2023-03-16T15:56:21;11.10;;;3.50;;
77234;SDS011;66253;50.526;14.974;2023-03-16T15:58:54;5.80;;;2.50;;
77234;SDS011;66253;50.526;14.974;2023-03-16T16:01:25;5.30;;;1.60;;
77234;SDS011;66253;50.526;14.974;2023-03-16T16:04:15;4.00;;;1.50;;
77234;SDS011;66253;50.526;14.974;2023-03-16T16:07:08;6.90;;;1.90;;
77234;SDS011;66253;50.526;14.974;2023-03-16T16:12:08;6.20;;;1.90;;
77234;SDS011;66253;50.526;14.974;2023-03-16T16:14:48;5.70;;;2.10;;
77234;SDS011;66253;50.526;14.974;2023-03-16T16:17:14;7.60;;;1.60;;
77234;SDS011;66253;50.526;14.974;2023-03-16T16:19:43;6.60;;;1.70;;
77234;SDS011;66253;50.526;14.974;2023-03-16T16:22:10;5.10;;;1.50;;
77234;SDS011;66253;50.526;14.974;2023-03-16T16:24:47;5.80;;;2.40;;
77234;SDS011;66253;50.526;14.974;2023-03-16T16:27:13;7.10;;;1.90;;
77234;SDS011;66253;50.526;14.974;2023-03-16T16:29:39;6.70;;;2.50;;
77234;SDS011;66253;50.526;14.974;2023-03-16T16:32:16;6.30;;;2.60;;
77234;SDS011;66253;50.526;14.974;2023-03-16T16:34:49;4.70;;;2.20;;
77234;SDS011;66253;50.526;14.974;2023-03-16T16:37:15;5.80;;;1.90;;
77234;SDS011;66253;50.526;14.974;2023-03-16T16:39:40;7.10;;;2.60;;
77234;SDS011;66253;50.526;14.974;2023-03-16T16:42:12;8.20;;;2.60;;
77234;SDS011;66253;50.526;14.974;2023-03-16T16:44:46;5.90;;;2.10;;
77234;SDS011;66253;50.526;14.974;2023-03-16T16:47:18;7.30;;;2.20;;
77234;SDS011;66253;50.526;14.974;2023-03-16T16:49:50;7.20;;;2.30;;
77234;SDS011;66253;50.526;14.974;2023-03-16T16:52:23;6.30;;;2.30;;
77234;SDS011;66253;50.526;14.974;2023-03-16T16:54:51;7.00;;;2.30;;
77234;SDS011;66253;50.526;14.974;2023-03-16T16:57:17;7.00;;;3.00;;
77234;SDS011;66253;50.526;14.974;2023-03-16T16:59:44;8.90;;;2.90;;
77234;SDS011;66253;50.526;14.974;2023-03-16T17:02:26;6.30;;;2.10;;
77234;SDS011;66253;50.526;14.974;2023-03-16T17:05:17;4.70;;;2.10;;
77234;SDS011;66253;50.526;14.974;2023-03-16T17:08:10;8.80;;;2.90;;
77234;SDS011;66253;50.526;14.974;2023-03-16T17:10:40;7.20;;;3.10;;
77234;SDS011;66253;50.526;14.974;2023-03-16T17:19:44;11.20;;;5.40;;
77234;SDS011;66253;50.526;14.974;2023-03-16T17:25:08;9.00;;;3.10;;
77234;SDS011;66253;50.526;14.974;2023-03-16T17:27:38;7.60;;;3.20;;
77234;SDS011;66253;50.526;14.974;2023-03-16T17:30:28;10.20;;;3.20;;
77234;SDS011;66253;50.526;14.974;2023-03-16T17:32:56;8.10;;;3.30;;
77234;SDS011;66253;50.526;14.974;2023-03-16T17:35:45;8.70;;;3.10;;
77234;SDS011;66253;50.526;14.974;2023-03-16T17:38:18;7.20;;;2.90;;
77234;SDS011;66253;50.526;14.974;2023-03-16T17:40:46;8.00;;;3.10;;